sensor_id;sensor_type;location;lat;lon;timestamp;P1;durP1;ratioP1;P2;durP2;ratioP2
5414;SDS011;2730;51.512;7.504;2023-03-13T00:01:24;12.05;;;3.05;;
5414;SDS011;2730;51.512;7.504;2023-03-13T00:03:52;12.75;;;3.05;;
5414;SDS011;2730;51.512;7.504;2023-03-13T00:06:20;10.77;;;2.90;;
5414;SDS011;2730;51.512;7.504;2023-03-13T00:08:48;10.15;;;2.85;;
5414;SDS011;2730;51.512;7.504;2023-03-13T00:11:15;11.07;;;2.70;;
5414;SDS011;2730;51.512;7.504;2023-03-13T00:13:43;26.33;;;4.28;;
5414;SDS011;2730;51.512;7.504;2023-03-13T00:16:10;14.95;;;3.85;;
5414;SDS011;2730;51.512;7.504;2023-03-13T00:18:40;13.82;;;3.70;;
5414;SDS011;2730;51.512;7.504;2023-03-13T00:21:10;13.60;;;3.03;;
5414;SDS011;2730;51.512;7.504;2023-03-13T00:23:37;16.52;;;3.35;;
5414;SDS011;2730;51.512;7.504;2023-03-13T00:26:05;14.18;;;3.17;;
5414;SDS011;2730;51.512;7.504;2023-03-13T00:28:33;13.85;;;3.22;;
5414;SDS011;2730;51.512;7.504;2023-03-13T00:31:03;15.52;;;2.90;;
5414;SDS011;2730;51.512;7.504;2023-03-13T00:33:31;12.27;;;2.85;;
5414;SDS011;2730;51.512;7.504;2023-03-13T00:35:58;17.20;;;3.90;;
5414;SDS011;2730;51.512;7.504;2023-03-13T00:38:26;12.57;;;2.85;;
5414;SDS011;2730;51.512;7.504;2023-03-13T00:40:57;14.63;;;2.85;;
5414;SDS011;2730;51.512;7.504;2023-03-13T00:43:25;9.95;;;2.78;;
5414;SDS011;2730;51.512;7.504;2023-03-13T00:45:52;17.77;;;3.30;;
5414;SDS011;2730;51.512;7.504;2023-03-13T00:48:20;14.95;;;2.97;;
5414;SDS011;2730;51.512;7.504;2023-03-13T00:50:47;14.50;;;3.40;;
5414;SDS011;2730;51.512;7.504;2023-03-13T00:53:13;10.45;;;2.53;;
5414;SDS011;2730;51.512;7.504;2023-03-13T00:55:49;20.70;;;3.40;;
5414;SDS011;2730;51.512;7.504;2023-03-13T00:58:18;7.50;;;2.70;;
5414;SDS011;2730;51.512;7.504;2023-03-13T01:00:44;18.70;;;4.68;;
5414;SDS011;2730;51.512;7.504;2023-03-13T01:03:11;9.48;;;2.60;;
5414;SDS011;2730;51.512;7.504;2023-03-13T01:05:39;9.90;;;2.08;;
5414;SDS011;2730;51.512;7.504;2023-03-13T01:08:06;16.73;;;3.35;;
5414;SDS011;2730;51.512;7.504;2023-03-13T01:10:33;18.10;;;2.97;;
5414;SDS011;2730;51.512;7.504;2023-03-13T01:13:00;11.70;;;2.65;;
5414;SDS011;2730;51.512;7.504;2023-03-13T01:15:28;13.43;;;3.53;;
5414;SDS011;2730;51.512;7.504;2023-03-13T01:17:55;18.60;;;4.00;;
5414;SDS011;2730;51.512;7.504;2023-03-13T01:20:22;9.32;;;2.47;;
5414;SDS011;2730;51.512;7.504;2023-03-13T01:22:50;21.65;;;4.22;;
5414;SDS011;2730;51.512;7.504;2023-03-13T01:25:17;10.50;;;2.75;;
5414;SDS011;2730;51.512;7.504;2023-03-13T01:27:43;9.98;;;3.10;;
5414;SDS011;2730;51.512;7.504;2023-03-13T01:30:11;16.20;;;2.97;;
5414;SDS011;2730;51.512;7.504;2023-03-13T01:32:38;7.28;;;2.42;;
5414;SDS011;2730;51.512;7.504;2023-03-13T01:35:05;11.93;;;3.63;;
5414;SDS011;2730;51.512;7.504;2023-03-13T01:37:32;13.13;;;2.72;;
5414;SDS011;2730;51.512;7.504;2023-03-13T01:40:00;18.60;;;4.25;;
5414;SDS011;2730;51.512;7.504;2023-03-13T01:42:27;10.35;;;3.70;;
5414;SDS011;2730;51.512;7.504;2023-03-13T01:44:54;13.60;;;3.13;;
5414;SDS011;2730;51.512;7.504;2023-03-13T01:47:22;8.95;;;2.50;;
5414;SDS011;2730;51.512;7.504;2023-03-13T01:49:49;21.67;;;3.38;;
5414;SDS011;2730;51.512;7.504;2023-03-13T01:52:18;15.23;;;3.00;;
5414;SDS011;2730;51.512;7.504;2023-03-13T01:54:49;18.30;;;3.55;;
5414;SDS011;2730;51.512;7.504;2023-03-13T01:57:22;8.93;;;3.15;;
5414;SDS011;2730;51.512;7.504;2023-03-13T01:59:53;15.82;;;2.97;;
5414;SDS011;2730;51.512;7.504;2023-03-13T02:02:23;11.27;;;2.88;;
5414;SDS011;2730;51.512;7.504;2023-03-13T02:04:51;11.43;;;2.85;;
5414;SDS011;2730;51.512;7.504;2023-03-13T02:07:23;17.70;;;2.95;;
5414;SDS011;2730;51.512;7.504;2023-03-13T02:09:52;10.25;;;2.40;;
5414;SDS011;2730;51.512;7.504;2023-03-13T02:12:23;10.88;;;2.30;;
5414;SDS011;2730;51.512;7.504;2023-03-13T02:14:54;17.58;;;3.33;;
5414;SDS011;2730;51.512;7.504;2023-03-13T02:17:22;14.48;;;3.08;;
5414;SDS011;2730;51.512;7.504;2023-03-13T02:19:50;12.35;;;2.42;;
5414;SDS011;2730;51.512;7.504;2023-03-13T02:22:19;13.82;;;3.15;;
5414;SDS011;2730;51.512;7.504;2023-03-13T02:24:52;16.63;;;3.20;;
5414;SDS011;2730;51.512;7.504;2023-03-13T02:27:27;4.65;;;2.42;;
5414;SDS011;2730;51.512;7.504;2023-03-13T02:29:54;8.77;;;2.80;;
5414;SDS011;2730;51.512;7.504;2023-03-13T02:32:22;15.65;;;2.42;;
5414;SDS011;2730;51.512;7.504;2023-03-13T02:34:51;14.07;;;3.30;;
5414;SDS011;2730;51.512;7.504;2023-03-13T02:37:21;10.25;;;2.67;;
5414;SDS011;2730;51.512;7.504;2023-03-13T02:39:50;10.50;;;2.90;;
5414;SDS011;2730;51.512;7.504;2023-03-13T02:42:17;20.10;;;2.85;;
5414;SDS011;2730;51.512;7.504;2023-03-13T02:44:48;7.10;;;2.88;;
5414;SDS011;2730;51.512;7.504;2023-03-13T02:47:16;10.68;;;3.15;;
5414;SDS011;2730;51.512;7.504;2023-03-13T02:49:44;16.15;;;3.25;;
5414;SDS011;2730;51.512;7.504;2023-03-13T02:52:12;12.40;;;2.70;;
5414;SDS011;2730;51.512;7.504;2023-03-13T02:54:41;10.50;;;2.58;;
5414;SDS011;2730;51.512;7.504;2023-03-13T02:57:11;5.65;;;2.70;;
5414;SDS011;2730;51.512;7.504;2023-03-13T02:59:37;14.00;;;3.70;;
5414;SDS011;2730;51.512;7.504;2023-03-13T03:02:05;15.82;;;2.38;;
5414;SDS011;2730;51.512;7.504;2023-03-13T03:04:32;10.40;;;2.78;;
5414;SDS011;2730;51.512;7.504;2023-03-13T03:06:59;15.10;;;3.38;;
5414;SDS011;2730;51.512;7.504;2023-03-13T03:09:26;8.82;;;2.90;;
5414;SDS011;2730;51.512;7.504;2023-03-13T03:11:52;14.55;;;2.85;;
5414;SDS011;2730;51.512;7.504;2023-03-13T03:14:19;5.63;;;2.40;;
5414;SDS011;2730;51.512;7.504;2023-03-13T03:16:46;6.10;;;2.45;;
5414;SDS011;2730;51.512;7.504;2023-03-13T03:19:14;6.90;;;2.58;;
5414;SDS011;2730;51.512;7.504;2023-03-13T03:21:41;9.07;;;2.58;;
5414;SDS011;2730;51.512;7.504;2023-03-13T03:24:08;12.13;;;2.10;;
5414;SDS011;2730;51.512;7.504;2023-03-13T03:26:35;15.38;;;2.45;;
5414;SDS011;2730;51.512;7.504;2023-03-13T03:29:02;9.18;;;2.42;;
5414;SDS011;2730;51.512;7.504;2023-03-13T03:31:29;9.73;;;3.10;;
5414;SDS011;2730;51.512;7.504;2023-03-13T03:33:56;10.30;;;2.92;;
5414;SDS011;2730;51.512;7.504;2023-03-13T03:36:27;7.05;;;2.30;;
5414;SDS011;2730;51.512;7.504;2023-03-13T03:38:54;7.47;;;2.40;;
5414;SDS011;2730;51.512;7.504;2023-03-13T03:41:21;7.40;;;2.13;;
5414;SDS011;2730;51.512;7.504;2023-03-13T03:43:48;6.60;;;1.77;;
5414;SDS011;2730;51.512;7.504;2023-03-13T03:46:14;8.00;;;2.25;;
5414;SDS011;2730;51.512;7.504;2023-03-13T03:48:41;5.50;;;2.30;;
5414;SDS011;2730;51.512;7.504;2023-03-13T03:51:08;11.95;;;2.10;;
5414;SDS011;2730;51.512;7.504;2023-03-13T03:53:36;8.75;;;2.13;;
5414;SDS011;2730;51.512;7.504;2023-03-13T03:56:03;5.28;;;2.70;;
5414;SDS011;2730;51.512;7.504;2023-03-13T03:58:31;7.35;;;1.85;;
5414;SDS011;2730;51.512;7.504;2023-03-13T04:00:57;6.43;;;2.35;;
5414;SDS011;2730;51.512;7.504;2023-03-13T04:03:24;4.43;;;1.50;;
5414;SDS011;2730;51.512;7.504;2023-03-13T04:05:51;6.57;;;1.77;;
5414;SDS011;2730;51.512;7.504;2023-03-13T04:08:18;2.30;;;1.38;;
5414;SDS011;2730;51.512;7.504;2023-03-13T04:10:46;5.40;;;1.63;;
5414;SDS011;2730;51.512;7.504;2023-03-13T04:13:13;2.17;;;1.70;;
5414;SDS011;2730;51.512;7.504;2023-03-13T04:15:40;3.28;;;1.40;;
5414;SDS011;2730;51.512;7.504;2023-03-13T04:18:07;6.22;;;1.80;;
5414;SDS011;2730;51.512;7.504;2023-03-13T04:20:34;4.05;;;2.00;;
5414;SDS011;2730;51.512;7.504;2023-03-13T04:23:02;5.78;;;2.03;;
5414;SDS011;2730;51.512;7.504;2023-03-13T04:25:29;9.30;;;2.20;;
5414;SDS011;2730;51.512;7.504;2023-03-13T04:27:57;3.63;;;1.60;;
5414;SDS011;2730;51.512;7.504;2023-03-13T04:30:24;1.88;;;1.70;;
5414;SDS011;2730;51.512;7.504;2023-03-13T04:32:50;2.03;;;1.60;;
5414;SDS011;2730;51.512;7.504;2023-03-13T04:35:17;1.63;;;1.35;;
5414;SDS011;2730;51.512;7.504;2023-03-13T04:37:44;3.42;;;1.40;;
5414;SDS011;2730;51.512;7.504;2023-03-13T04:40:11;4.40;;;1.70;;
5414;SDS011;2730;51.512;7.504;2023-03-13T04:42:38;10.73;;;1.65;;
5414;SDS011;2730;51.512;7.504;2023-03-13T04:45:07;4.03;;;1.38;;
5414;SDS011;2730;51.512;7.504;2023-03-13T04:47:36;3.05;;;1.60;;
5414;SDS011;2730;51.512;7.504;2023-03-13T04:50:03;5.47;;;2.63;;
5414;SDS011;2730;51.512;7.504;2023-03-13T04:52:31;2.20;;;1.40;;
5414;SDS011;2730;51.512;7.504;2023-03-13T04:54:57;4.13;;;2.65;;
5414;SDS011;2730;51.512;7.504;2023-03-13T04:57:24;4.07;;;1.75;;
5414;SDS011;2730;51.512;7.504;2023-03-13T04:59:51;3.40;;;2.25;;
5414;SDS011;2730;51.512;7.504;2023-03-13T05:02:19;9.38;;;2.15;;
5414;SDS011;2730;51.512;7.504;2023-03-13T05:04:46;6.43;;;1.75;;
5414;SDS011;2730;51.512;7.504;2023-03-13T05:07:12;8.43;;;1.52;;
5414;SDS011;2730;51.512;7.504;2023-03-13T05:09:39;6.60;;;1.55;;
5414;SDS011;2730;51.512;7.504;2023-03-13T05:12:06;1.48;;;1.33;;
5414;SDS011;2730;51.512;7.504;2023-03-13T05:14:33;3.65;;;1.75;;
5414;SDS011;2730;51.512;7.504;2023-03-13T05:17:00;6.78;;;2.10;;
5414;SDS011;2730;51.512;7.504;2023-03-13T05:19:28;3.78;;;1.80;;
5414;SDS011;2730;51.512;7.504;2023-03-13T05:21:55;4.53;;;1.70;;
5414;SDS011;2730;51.512;7.504;2023-03-13T05:24:22;2.22;;;1.70;;
5414;SDS011;2730;51.512;7.504;2023-03-13T05:26:48;5.07;;;1.50;;
5414;SDS011;2730;51.512;7.504;2023-03-13T05:29:15;3.40;;;1.88;;
5414;SDS011;2730;51.512;7.504;2023-03-13T05:31:42;3.20;;;1.70;;
5414;SDS011;2730;51.512;7.504;2023-03-13T05:34:08;3.05;;;1.80;;
5414;SDS011;2730;51.512;7.504;2023-03-13T05:36:37;4.60;;;2.35;;
5414;SDS011;2730;51.512;7.504;2023-03-13T05:39:03;2.10;;;2.00;;
5414;SDS011;2730;51.512;7.504;2023-03-13T05:41:30;2.15;;;1.95;;
5414;SDS011;2730;51.512;7.504;2023-03-13T05:43:57;2.08;;;1.95;;
5414;SDS011;2730;51.512;7.504;2023-03-13T05:46:23;4.28;;;1.70;;
5414;SDS011;2730;51.512;7.504;2023-03-13T05:48:50;4.57;;;2.28;;
5414;SDS011;2730;51.512;7.504;2023-03-13T05:51:17;2.20;;;1.70;;
5414;SDS011;2730;51.512;7.504;2023-03-13T05:53:45;2.42;;;2.15;;
5414;SDS011;2730;51.512;7.504;2023-03-13T05:56:12;2.60;;;1.90;;
5414;SDS011;2730;51.512;7.504;2023-03-13T05:58:39;3.38;;;2.10;;
5414;SDS011;2730;51.512;7.504;2023-03-13T06:01:06;4.95;;;1.83;;
5414;SDS011;2730;51.512;7.504;2023-03-13T06:03:33;2.47;;;2.00;;
5414;SDS011;2730;51.512;7.504;2023-03-13T06:06:00;2.00;;;1.85;;
5414;SDS011;2730;51.512;7.504;2023-03-13T06:08:27;3.75;;;2.10;;
5414;SDS011;2730;51.512;7.504;2023-03-13T06:10:58;2.45;;;2.35;;
5414;SDS011;2730;51.512;7.504;2023-03-13T06:13:25;3.95;;;2.33;;
5414;SDS011;2730;51.512;7.504;2023-03-13T06:15:52;6.65;;;2.40;;
5414;SDS011;2730;51.512;7.504;2023-03-13T06:18:20;2.20;;;2.00;;
5414;SDS011;2730;51.512;7.504;2023-03-13T06:20:48;2.85;;;2.63;;
5414;SDS011;2730;51.512;7.504;2023-03-13T06:23:16;2.50;;;2.30;;
5414;SDS011;2730;51.512;7.504;2023-03-13T06:25:45;2.28;;;2.00;;
5414;SDS011;2730;51.512;7.504;2023-03-13T06:28:14;2.25;;;2.05;;
5414;SDS011;2730;51.512;7.504;2023-03-13T06:30:41;2.22;;;2.03;;
5414;SDS011;2730;51.512;7.504;2023-03-13T06:33:08;2.95;;;2.00;;
5414;SDS011;2730;51.512;7.504;2023-03-13T06:35:37;2.33;;;2.10;;
5414;SDS011;2730;51.512;7.504;2023-03-13T06:38:05;4.22;;;2.00;;
5414;SDS011;2730;51.512;7.504;2023-03-13T06:40:32;7.03;;;1.90;;
5414;SDS011;2730;51.512;7.504;2023-03-13T06:42:59;1.67;;;1.58;;
5414;SDS011;2730;51.512;7.504;2023-03-13T06:45:27;4.10;;;1.83;;
5414;SDS011;2730;51.512;7.504;2023-03-13T06:47:53;2.17;;;1.77;;
5414;SDS011;2730;51.512;7.504;2023-03-13T06:50:20;2.17;;;1.95;;
5414;SDS011;2730;51.512;7.504;2023-03-13T06:52:48;4.05;;;1.83;;
5414;SDS011;2730;51.512;7.504;2023-03-13T06:55:14;1.80;;;1.70;;
5414;SDS011;2730;51.512;7.504;2023-03-13T06:57:41;2.15;;;2.05;;
5414;SDS011;2730;51.512;7.504;2023-03-13T07:00:09;1.60;;;1.50;;
5414;SDS011;2730;51.512;7.504;2023-03-13T07:02:37;7.13;;;1.65;;
5414;SDS011;2730;51.512;7.504;2023-03-13T07:05:05;1.58;;;1.48;;
5414;SDS011;2730;51.512;7.504;2023-03-13T07:07:32;1.50;;;1.40;;
5414;SDS011;2730;51.512;7.504;2023-03-13T07:09:59;1.95;;;1.30;;
5414;SDS011;2730;51.512;7.504;2023-03-13T07:12:26;5.35;;;1.40;;
5414;SDS011;2730;51.512;7.504;2023-03-13T07:14:53;6.28;;;1.48;;
5414;SDS011;2730;51.512;7.504;2023-03-13T07:17:20;1.40;;;1.30;;
5414;SDS011;2730;51.512;7.504;2023-03-13T07:19:48;6.68;;;1.63;;
5414;SDS011;2730;51.512;7.504;2023-03-13T07:22:15;1.45;;;1.17;;
5414;SDS011;2730;51.512;7.504;2023-03-13T07:24:41;2.08;;;1.35;;
5414;SDS011;2730;51.512;7.504;2023-03-13T07:27:08;1.63;;;1.52;;
5414;SDS011;2730;51.512;7.504;2023-03-13T07:29:35;2.80;;;1.40;;
5414;SDS011;2730;51.512;7.504;2023-03-13T07:32:02;1.85;;;1.67;;
5414;SDS011;2730;51.512;7.504;2023-03-13T07:34:29;1.42;;;1.33;;
5414;SDS011;2730;51.512;7.504;2023-03-13T07:36:57;4.28;;;1.30;;
5414;SDS011;2730;51.512;7.504;2023-03-13T07:39:23;2.95;;;1.20;;
5414;SDS011;2730;51.512;7.504;2023-03-13T07:41:50;4.00;;;1.52;;
5414;SDS011;2730;51.512;7.504;2023-03-13T07:44:17;1.60;;;1.40;;
5414;SDS011;2730;51.512;7.504;2023-03-13T07:46:44;1.40;;;1.30;;
5414;SDS011;2730;51.512;7.504;2023-03-13T07:49:12;3.40;;;1.60;;
5414;SDS011;2730;51.512;7.504;2023-03-13T07:51:39;2.65;;;1.60;;
5414;SDS011;2730;51.512;7.504;2023-03-13T07:54:07;1.85;;;1.48;;
5414;SDS011;2730;51.512;7.504;2023-03-13T07:56:34;1.92;;;1.45;;
5414;SDS011;2730;51.512;7.504;2023-03-13T07:59:01;2.00;;;1.55;;
5414;SDS011;2730;51.512;7.504;2023-03-13T08:01:27;1.60;;;1.40;;
5414;SDS011;2730;51.512;7.504;2023-03-13T08:03:54;3.47;;;1.63;;
5414;SDS011;2730;51.512;7.504;2023-03-13T08:06:23;2.60;;;1.75;;
5414;SDS011;2730;51.512;7.504;2023-03-13T08:08:51;1.65;;;1.55;;
5414;SDS011;2730;51.512;7.504;2023-03-13T08:11:23;3.90;;;1.95;;
5414;SDS011;2730;51.512;7.504;2023-03-13T08:13:51;4.93;;;1.73;;
5414;SDS011;2730;51.512;7.504;2023-03-13T08:16:19;1.73;;;1.63;;
5414;SDS011;2730;51.512;7.504;2023-03-13T08:18:48;4.95;;;1.70;;
5414;SDS011;2730;51.512;7.504;2023-03-13T08:21:17;2.05;;;1.58;;
5414;SDS011;2730;51.512;7.504;2023-03-13T08:23:45;4.80;;;1.80;;
5414;SDS011;2730;51.512;7.504;2023-03-13T08:26:13;7.43;;;2.20;;
5414;SDS011;2730;51.512;7.504;2023-03-13T08:28:43;2.25;;;2.15;;
5414;SDS011;2730;51.512;7.504;2023-03-13T08:31:11;4.50;;;1.70;;
5414;SDS011;2730;51.512;7.504;2023-03-13T08:33:40;3.65;;;2.22;;
5414;SDS011;2730;51.512;7.504;2023-03-13T08:36:12;2.63;;;1.95;;
5414;SDS011;2730;51.512;7.504;2023-03-13T08:38:41;6.75;;;1.85;;
5414;SDS011;2730;51.512;7.504;2023-03-13T08:41:09;5.68;;;1.60;;
5414;SDS011;2730;51.512;7.504;2023-03-13T08:43:36;2.05;;;1.40;;
5414;SDS011;2730;51.512;7.504;2023-03-13T08:46:04;2.85;;;2.05;;
5414;SDS011;2730;51.512;7.504;2023-03-13T08:48:31;2.85;;;1.70;;
5414;SDS011;2730;51.512;7.504;2023-03-13T08:50:59;3.50;;;1.40;;
5414;SDS011;2730;51.512;7.504;2023-03-13T08:53:27;3.70;;;2.40;;
5414;SDS011;2730;51.512;7.504;2023-03-13T08:55:54;5.20;;;1.90;;
5414;SDS011;2730;51.512;7.504;2023-03-13T08:58:21;3.92;;;2.03;;
5414;SDS011;2730;51.512;7.504;2023-03-13T09:00:47;5.32;;;2.17;;
5414;SDS011;2730;51.512;7.504;2023-03-13T09:03:15;4.00;;;1.95;;
5414;SDS011;2730;51.512;7.504;2023-03-13T09:05:42;4.00;;;1.95;;
5414;SDS011;2730;51.512;7.504;2023-03-13T09:08:10;7.85;;;1.80;;
5414;SDS011;2730;51.512;7.504;2023-03-13T09:10:37;4.10;;;1.80;;
5414;SDS011;2730;51.512;7.504;2023-03-13T09:13:03;5.88;;;2.70;;
5414;SDS011;2730;51.512;7.504;2023-03-13T09:15:30;3.42;;;1.95;;
5414;SDS011;2730;51.512;7.504;2023-03-13T09:17:57;6.38;;;1.95;;
5414;SDS011;2730;51.512;7.504;2023-03-13T09:20:25;7.75;;;2.30;;
5414;SDS011;2730;51.512;7.504;2023-03-13T09:22:52;4.25;;;2.17;;
5414;SDS011;2730;51.512;7.504;2023-03-13T09:25:18;2.22;;;2.00;;
5414;SDS011;2730;51.512;7.504;2023-03-13T09:27:45;8.00;;;2.08;;
5414;SDS011;2730;51.512;7.504;2023-03-13T09:30:12;3.53;;;2.42;;
5414;SDS011;2730;51.512;7.504;2023-03-13T09:32:39;5.43;;;2.30;;
5414;SDS011;2730;51.512;7.504;2023-03-13T09:35:06;4.28;;;2.55;;
5414;SDS011;2730;51.512;7.504;2023-03-13T09:37:34;5.28;;;2.08;;
5414;SDS011;2730;51.512;7.504;2023-03-13T09:40:01;5.05;;;2.40;;
5414;SDS011;2730;51.512;7.504;2023-03-13T09:42:31;6.47;;;2.10;;
5414;SDS011;2730;51.512;7.504;2023-03-13T09:45:04;3.57;;;2.10;;
5414;SDS011;2730;51.512;7.504;2023-03-13T09:47:38;4.00;;;1.80;;
5414;SDS011;2730;51.512;7.504;2023-03-13T09:50:10;3.70;;;1.80;;
5414;SDS011;2730;51.512;7.504;2023-03-13T09:52:41;6.20;;;2.00;;
5414;SDS011;2730;51.512;7.504;2023-03-13T09:55:11;2.00;;;1.90;;
5414;SDS011;2730;51.512;7.504;2023-03-13T09:57:45;7.90;;;1.70;;
5414;SDS011;2730;51.512;7.504;2023-03-13T10:00:17;4.90;;;1.97;;
5414;SDS011;2730;51.512;7.504;2023-03-13T10:02:51;7.43;;;2.50;;
5414;SDS011;2730;51.512;7.504;2023-03-13T10:05:22;6.17;;;1.73;;
5414;SDS011;2730;51.512;7.504;2023-03-13T10:07:51;2.60;;;1.87;;
5414;SDS011;2730;51.512;7.504;2023-03-13T10:10:25;4.10;;;2.07;;
5414;SDS011;2730;51.512;7.504;2023-03-13T10:13:02;4.80;;;2.60;;
5414;SDS011;2730;51.512;7.504;2023-03-13T10:15:38;3.13;;;2.50;;
5414;SDS011;2730;51.512;7.504;2023-03-13T10:18:11;5.53;;;2.30;;
5414;SDS011;2730;51.512;7.504;2023-03-13T10:20:42;4.47;;;2.00;;
5414;SDS011;2730;51.512;7.504;2023-03-13T10:23:14;4.53;;;2.00;;
5414;SDS011;2730;51.512;7.504;2023-03-13T10:25:45;2.07;;;1.57;;
5414;SDS011;2730;51.512;7.504;2023-03-13T10:28:13;2.13;;;1.93;;
5414;SDS011;2730;51.512;7.504;2023-03-13T10:30:42;2.00;;;1.60;;
5414;SDS011;2730;51.512;7.504;2023-03-13T10:33:17;4.30;;;1.70;;
5414;SDS011;2730;51.512;7.504;2023-03-13T10:35:48;3.03;;;2.13;;
5414;SDS011;2730;51.512;7.504;2023-03-13T10:38:27;4.63;;;2.30;;
5414;SDS011;2730;51.512;7.504;2023-03-13T10:40:57;3.17;;;1.70;;
5414;SDS011;2730;51.512;7.504;2023-03-13T10:43:25;3.70;;;1.57;;
5414;SDS011;2730;51.512;7.504;2023-03-13T10:45:53;1.53;;;1.43;;
5414;SDS011;2730;51.512;7.504;2023-03-13T10:48:21;2.70;;;1.40;;
5414;SDS011;2730;51.512;7.504;2023-03-13T10:50:49;2.97;;;1.80;;
5414;SDS011;2730;51.512;7.504;2023-03-13T10:53:23;2.50;;;1.80;;
5414;SDS011;2730;51.512;7.504;2023-03-13T10:55:59;1.93;;;1.47;;
5414;SDS011;2730;51.512;7.504;2023-03-13T10:58:34;1.80;;;1.70;;
5414;SDS011;2730;51.512;7.504;2023-03-13T11:01:12;2.80;;;1.50;;
5414;SDS011;2730;51.512;7.504;2023-03-13T11:03:42;2.67;;;1.60;;
5414;SDS011;2730;51.512;7.504;2023-03-13T11:06:21;1.40;;;1.30;;
5414;SDS011;2730;51.512;7.504;2023-03-13T11:08:57;1.50;;;1.40;;
5414;SDS011;2730;51.512;7.504;2023-03-13T11:11:26;2.63;;;1.53;;
5414;SDS011;2730;51.512;7.504;2023-03-13T11:13:59;2.00;;;1.13;;
5414;SDS011;2730;51.512;7.504;2023-03-13T11:16:35;2.83;;;1.70;;
5414;SDS011;2730;51.512;7.504;2023-03-13T11:19:22;1.97;;;1.40;;
5414;SDS011;2730;51.512;7.504;2023-03-13T11:22:06;1.73;;;1.33;;
5414;SDS011;2730;51.512;7.504;2023-03-13T11:24:46;2.30;;;1.00;;
5414;SDS011;2730;51.512;7.504;2023-03-13T11:27:22;1.70;;;1.60;;
5414;SDS011;2730;51.512;7.504;2023-03-13T11:29:58;1.47;;;0.90;;
5414;SDS011;2730;51.512;7.504;2023-03-13T11:32:35;2.43;;;1.10;;
5414;SDS011;2730;51.512;7.504;2023-03-13T11:35:10;3.80;;;1.40;;
5414;SDS011;2730;51.512;7.504;2023-03-13T11:37:44;1.10;;;1.00;;
5414;SDS011;2730;51.512;7.504;2023-03-13T11:40:14;1.50;;;1.00;;
5414;SDS011;2730;51.512;7.504;2023-03-13T11:42:52;0.83;;;0.83;;
5414;SDS011;2730;51.512;7.504;2023-03-13T11:45:41;1.43;;;1.33;;
5414;SDS011;2730;51.512;7.504;2023-03-13T11:48:17;3.00;;;1.20;;
5414;SDS011;2730;51.512;7.504;2023-03-13T11:50:55;3.03;;;2.23;;
5414;SDS011;2730;51.512;7.504;2023-03-13T11:53:30;2.60;;;1.20;;
5414;SDS011;2730;51.512;7.504;2023-03-13T11:56:09;1.20;;;1.00;;
5414;SDS011;2730;51.512;7.504;2023-03-13T11:58:45;0.90;;;0.80;;
5414;SDS011;2730;51.512;7.504;2023-03-13T12:01:25;1.00;;;0.90;;
5414;SDS011;2730;51.512;7.504;2023-03-13T12:03:56;0.90;;;0.90;;
5414;SDS011;2730;51.512;7.504;2023-03-13T12:06:28;1.40;;;1.20;;
5414;SDS011;2730;51.512;7.504;2023-03-13T12:08:59;1.10;;;1.00;;
5414;SDS011;2730;51.512;7.504;2023-03-13T12:11:32;0.97;;;0.87;;
5414;SDS011;2730;51.512;7.504;2023-03-13T12:14:10;1.07;;;1.00;;
5414;SDS011;2730;51.512;7.504;2023-03-13T12:16:42;1.03;;;0.93;;
5414;SDS011;2730;51.512;7.504;2023-03-13T12:19:14;1.20;;;1.00;;
5414;SDS011;2730;51.512;7.504;2023-03-13T12:21:45;0.87;;;0.87;;
5414;SDS011;2730;51.512;7.504;2023-03-13T12:24:18;1.00;;;0.80;;
5414;SDS011;2730;51.512;7.504;2023-03-13T12:26:51;1.80;;;1.00;;
5414;SDS011;2730;51.512;7.504;2023-03-13T12:29:26;0.90;;;0.80;;
5414;SDS011;2730;51.512;7.504;2023-03-13T12:32:02;3.90;;;1.10;;
5414;SDS011;2730;51.512;7.504;2023-03-13T12:34:35;1.50;;;0.83;;
5414;SDS011;2730;51.512;7.504;2023-03-13T12:37:09;1.60;;;1.00;;
5414;SDS011;2730;51.512;7.504;2023-03-13T12:39:47;4.70;;;0.90;;
5414;SDS011;2730;51.512;7.504;2023-03-13T12:42:19;0.73;;;0.73;;
5414;SDS011;2730;51.512;7.504;2023-03-13T12:45:04;0.90;;;0.90;;
5414;SDS011;2730;51.512;7.504;2023-03-13T12:47:34;1.10;;;0.80;;
5414;SDS011;2730;51.512;7.504;2023-03-13T12:50:25;1.67;;;0.93;;
5414;SDS011;2730;51.512;7.504;2023-03-13T12:56:08;1.13;;;0.80;;
5414;SDS011;2730;51.512;7.504;2023-03-13T12:58:42;1.13;;;1.03;;
5414;SDS011;2730;51.512;7.504;2023-03-13T13:01:26;2.20;;;1.00;;
5414;SDS011;2730;51.512;7.504;2023-03-13T13:03:59;1.47;;;1.03;;
5414;SDS011;2730;51.512;7.504;2023-03-13T13:06:48;1.87;;;0.80;;
5414;SDS011;2730;51.512;7.504;2023-03-13T13:09:18;1.63;;;1.47;;
5414;SDS011;2730;51.512;7.504;2023-03-13T13:11:48;1.90;;;0.83;;
5414;SDS011;2730;51.512;7.504;2023-03-13T13:20:35;3.90;;;0.97;;
5414;SDS011;2730;51.512;7.504;2023-03-13T13:32:36;2.40;;;1.20;;
5414;SDS011;2730;51.512;7.504;2023-03-13T13:35:20;1.93;;;0.90;;
5414;SDS011;2730;51.512;7.504;2023-03-13T13:41:01;1.93;;;0.83;;
5414;SDS011;2730;51.512;7.504;2023-03-13T13:43:31;2.70;;;0.90;;
5414;SDS011;2730;51.512;7.504;2023-03-13T13:46:00;1.10;;;1.00;;
5414;SDS011;2730;51.512;7.504;2023-03-13T13:48:30;0.90;;;0.90;;
5414;SDS011;2730;51.512;7.504;2023-03-13T13:51:20;0.70;;;0.70;;
5414;SDS011;2730;51.512;7.504;2023-03-13T13:53:50;1.83;;;0.80;;
5414;SDS011;2730;51.512;7.504;2023-03-13T13:56:36;5.70;;;1.40;;
5414;SDS011;2730;51.512;7.504;2023-03-13T14:02:14;1.10;;;1.00;;
5414;SDS011;2730;51.512;7.504;2023-03-13T14:04:47;1.10;;;1.00;;
5414;SDS011;2730;51.512;7.504;2023-03-13T14:07:19;1.47;;;0.80;;
5414;SDS011;2730;51.512;7.504;2023-03-13T14:09:57;5.07;;;0.87;;
5414;SDS011;2730;51.512;7.504;2023-03-13T14:12:31;1.13;;;1.10;;
5414;SDS011;2730;51.512;7.504;2023-03-13T14:15:05;3.00;;;1.50;;
5414;SDS011;2730;51.512;7.504;2023-03-13T14:17:37;1.00;;;1.00;;
5414;SDS011;2730;51.512;7.504;2023-03-13T14:20:14;5.13;;;1.30;;
5414;SDS011;2730;51.512;7.504;2023-03-13T14:22:54;0.70;;;0.70;;
5414;SDS011;2730;51.512;7.504;2023-03-13T14:25:22;4.23;;;1.10;;
5414;SDS011;2730;51.512;7.504;2023-03-13T14:27:50;1.83;;;1.00;;
5414;SDS011;2730;51.512;7.504;2023-03-13T14:30:18;2.97;;;1.43;;
5414;SDS011;2730;51.512;7.504;2023-03-13T14:32:46;2.53;;;1.00;;
5414;SDS011;2730;51.512;7.504;2023-03-13T14:35:14;0.83;;;0.83;;
5414;SDS011;2730;51.512;7.504;2023-03-13T14:37:43;1.13;;;0.97;;
5414;SDS011;2730;51.512;7.504;2023-03-13T14:40:19;2.90;;;0.83;;
5414;SDS011;2730;51.512;7.504;2023-03-13T14:42:49;2.50;;;0.97;;
5414;SDS011;2730;51.512;7.504;2023-03-13T14:45:22;1.83;;;0.97;;
5414;SDS011;2730;51.512;7.504;2023-03-13T14:47:52;1.77;;;1.30;;
5414;SDS011;2730;51.512;7.504;2023-03-13T14:50:21;0.90;;;0.90;;
5414;SDS011;2730;51.512;7.504;2023-03-13T14:52:50;1.23;;;1.13;;
5414;SDS011;2730;51.512;7.504;2023-03-13T14:55:29;1.00;;;1.00;;
5414;SDS011;2730;51.512;7.504;2023-03-13T14:57:59;3.50;;;1.23;;
5414;SDS011;2730;51.512;7.504;2023-03-13T15:00:38;6.00;;;1.10;;
5414;SDS011;2730;51.512;7.504;2023-03-13T15:03:18;2.20;;;1.00;;
5414;SDS011;2730;51.512;7.504;2023-03-13T15:05:46;2.00;;;1.00;;
5414;SDS011;2730;51.512;7.504;2023-03-13T15:08:15;1.03;;;1.00;;
5414;SDS011;2730;51.512;7.504;2023-03-13T15:10:44;0.83;;;0.83;;
5414;SDS011;2730;51.512;7.504;2023-03-13T15:13:16;1.00;;;1.00;;
5414;SDS011;2730;51.512;7.504;2023-03-13T15:15:48;3.27;;;1.30;;
5414;SDS011;2730;51.512;7.504;2023-03-13T15:18:17;0.80;;;0.80;;
5414;SDS011;2730;51.512;7.504;2023-03-13T15:20:48;2.90;;;0.90;;
5414;SDS011;2730;51.512;7.504;2023-03-13T15:23:16;1.57;;;1.10;;
5414;SDS011;2730;51.512;7.504;2023-03-13T15:25:45;1.30;;;1.20;;
5414;SDS011;2730;51.512;7.504;2023-03-13T15:28:13;1.47;;;1.00;;
5414;SDS011;2730;51.512;7.504;2023-03-13T15:30:41;0.90;;;0.90;;
5414;SDS011;2730;51.512;7.504;2023-03-13T15:33:12;1.07;;;1.03;;
5414;SDS011;2730;51.512;7.504;2023-03-13T15:35:41;1.20;;;1.00;;
5414;SDS011;2730;51.512;7.504;2023-03-13T15:38:10;3.17;;;1.20;;
5414;SDS011;2730;51.512;7.504;2023-03-13T15:40:39;2.53;;;0.90;;
5414;SDS011;2730;51.512;7.504;2023-03-13T15:43:07;0.83;;;0.83;;
5414;SDS011;2730;51.512;7.504;2023-03-13T15:45:35;0.90;;;0.90;;
5414;SDS011;2730;51.512;7.504;2023-03-13T15:48:04;1.33;;;1.00;;
5414;SDS011;2730;51.512;7.504;2023-03-13T15:50:40;3.10;;;1.87;;
5414;SDS011;2730;51.512;7.504;2023-03-13T15:53:10;1.33;;;1.23;;